sensor_id;sensor_type;location;lat;lon;timestamp;pressure;altitude;pressure_sealevel;temperature;humidity
43741;BME280;29352;48.708;9.290;2023-04-26T00:01:56;97890.72;;;-1.08;92.04
43741;BME280;29352;48.708;9.290;2023-04-26T00:04:23;97891.28;;;-1.14;91.67
43741;BME280;29352;48.708;9.290;2023-04-26T00:06:49;97885.91;;;-1.12;90.64
43741;BME280;29352;48.708;9.290;2023-04-26T00:09:14;97891.28;;;-1.14;90.42
43741;BME280;29352;48.708;9.290;2023-04-26T00:11:40;97883.50;;;-1.53;91.27
43741;BME280;29352;48.708;9.290;2023-04-26T00:14:06;97892.31;;;-1.54;90.89
43741;BME280;29352;48.708;9.290;2023-04-26T00:16:31;97892.19;;;-1.62;91.15
43741;BME280;29352;48.708;9.290;2023-04-26T00:18:57;97892.06;;;-1.60;91.32
43741;BME280;29352;48.708;9.290;2023-04-26T00:21:22;97890.38;;;-1.52;92.43
43741;BME280;29352;48.708;9.290;2023-04-26T00:23:48;97893.53;;;-1.48;91.94
43741;BME280;29352;48.708;9.290;2023-04-26T00:26:13;97884.59;;;-1.55;92.29
43741;BME280;29352;48.708;9.290;2023-04-26T00:28:38;97885.97;;;-1.42;91.31
43741;BME280;29352;48.708;9.290;2023-04-26T00:31:04;97887.09;;;-1.54;92.63
43741;BME280;29352;48.708;9.290;2023-04-26T00:33:29;97882.25;;;-1.68;90.61
43741;BME280;29352;48.708;9.290;2023-04-26T00:35:55;97885.97;;;-1.80;88.14
43741;BME280;29352;48.708;9.290;2023-04-26T00:38:20;97890.09;;;-1.78;88.19
43741;BME280;29352;48.708;9.290;2023-04-26T00:40:46;97872.75;;;-1.59;90.93
43741;BME280;29352;48.708;9.290;2023-04-26T00:43:11;97881.28;;;-1.96;93.45
43741;BME280;29352;48.708;9.290;2023-04-26T00:45:37;97891.59;;;-1.95;93.03
43741;BME280;29352;48.708;9.290;2023-04-26T00:48:03;97887.91;;;-1.92;92.53
43741;BME280;29352;48.708;9.290;2023-04-26T00:50:30;97890.50;;;-2.02;90.96
43741;BME280;29352;48.708;9.290;2023-04-26T00:52:56;97893.25;;;-2.13;91.29
43741;BME280;29352;48.708;9.290;2023-04-26T00:55:24;97897.00;;;-1.96;89.22
43741;BME280;29352;48.708;9.290;2023-04-26T00:57:52;97894.59;;;-2.28;91.07
43741;BME280;29352;48.708;9.290;2023-04-26T01:00:18;97903.53;;;-2.21;91.91
43741;BME280;29352;48.708;9.290;2023-04-26T01:02:43;97903.13;;;-2.26;91.66
43741;BME280;29352;48.708;9.290;2023-04-26T01:05:09;97901.75;;;-2.30;91.34
43741;BME280;29352;48.708;9.290;2023-04-26T01:07:36;97901.91;;;-2.22;90.11
43741;BME280;29352;48.708;9.290;2023-04-26T01:10:03;97904.97;;;-1.98;88.43
43741;BME280;29352;48.708;9.290;2023-04-26T01:12:31;97903.03;;;-2.05;89.17
43741;BME280;29352;48.708;9.290;2023-04-26T01:14:59;97908.38;;;-2.17;88.97
43741;BME280;29352;48.708;9.290;2023-04-26T01:17:25;97907.81;;;-2.10;89.86
43741;BME280;29352;48.708;9.290;2023-04-26T01:19:51;97894.47;;;-2.07;90.35
43741;BME280;29352;48.708;9.290;2023-04-26T01:22:17;97896.25;;;-2.18;89.95
43741;BME280;29352;48.708;9.290;2023-04-26T01:24:44;97896.53;;;-2.11;90.07
43741;BME280;29352;48.708;9.290;2023-04-26T01:27:13;97899.53;;;-2.25;89.57
43741;BME280;29352;48.708;9.290;2023-04-26T01:29:38;97890.09;;;-2.07;88.64
43741;BME280;29352;48.708;9.290;2023-04-26T01:32:04;97896.41;;;-2.19;87.22
43741;BME280;29352;48.708;9.290;2023-04-26T01:34:29;97895.44;;;-2.18;85.80
43741;BME280;29352;48.708;9.290;2023-04-26T01:36:55;97898.78;;;-2.56;87.92
43741;BME280;29352;48.708;9.290;2023-04-26T01:39:21;97900.84;;;-2.60;89.90
43741;BME280;29352;48.708;9.290;2023-04-26T01:41:46;97904.88;;;-2.87;92.20
43741;BME280;29352;48.708;9.290;2023-04-26T01:44:12;97895.09;;;-2.85;91.36
43741;BME280;29352;48.708;9.290;2023-04-26T01:46:37;97894.22;;;-2.95;90.60
43741;BME280;29352;48.708;9.290;2023-04-26T01:49:03;97890.88;;;-3.06;91.19
43741;BME280;29352;48.708;9.290;2023-04-26T01:51:28;97898.16;;;-3.10;91.17
43741;BME280;29352;48.708;9.290;2023-04-26T01:53:54;97891.81;;;-3.07;90.80
43741;BME280;29352;48.708;9.290;2023-04-26T01:56:21;97889.78;;;-3.04;90.33
43741;BME280;29352;48.708;9.290;2023-04-26T01:58:47;97894.63;;;-2.99;90.36
43741;BME280;29352;48.708;9.290;2023-04-26T02:01:13;97900.13;;;-3.23;90.18
43741;BME280;29352;48.708;9.290;2023-04-26T02:03:38;97901.28;;;-3.16;90.65
43741;BME280;29352;48.708;9.290;2023-04-26T02:06:04;97903.22;;;-3.09;91.24
43741;BME280;29352;48.708;9.290;2023-04-26T02:08:30;97898.50;;;-3.24;91.57
43741;BME280;29352;48.708;9.290;2023-04-26T02:10:55;97896.13;;;-3.27;91.56
43741;BME280;29352;48.708;9.290;2023-04-26T02:13:21;97901.69;;;-3.11;91.12
43741;BME280;29352;48.708;9.290;2023-04-26T02:15:48;97894.13;;;-2.93;89.99
43741;BME280;29352;48.708;9.290;2023-04-26T02:18:14;97894.66;;;-3.20;91.54
43741;BME280;29352;48.708;9.290;2023-04-26T02:20:41;97892.44;;;-3.46;92.13
43741;BME280;29352;48.708;9.290;2023-04-26T02:23:08;97892.41;;;-3.67;91.37
43741;BME280;29352;48.708;9.290;2023-04-26T02:25:34;97895.41;;;-3.71;90.89
43741;BME280;29352;48.708;9.290;2023-04-26T02:28:01;97891.19;;;-3.84;90.55
43741;BME280;29352;48.708;9.290;2023-04-26T02:30:26;97894.13;;;-3.77;90.23
43741;BME280;29352;48.708;9.290;2023-04-26T02:32:55;97893.41;;;-4.00;91.05
43741;BME280;29352;48.708;9.290;2023-04-26T02:35:22;97892.31;;;-4.09;92.46
43741;BME280;29352;48.708;9.290;2023-04-26T02:37:48;97902.94;;;-4.21;93.62
43741;BME280;29352;48.708;9.290;2023-04-26T02:40:16;97892.75;;;-4.24;92.25
43741;BME280;29352;48.708;9.290;2023-04-26T02:42:43;97897.72;;;-4.21;92.77
43741;BME280;29352;48.708;9.290;2023-04-26T02:45:09;97896.25;;;-3.71;92.10
43741;BME280;29352;48.708;9.290;2023-04-26T02:47:35;97901.47;;;-4.03;91.69
43741;BME280;29352;48.708;9.290;2023-04-26T02:50:05;97890.31;;;-4.05;91.82
43741;BME280;29352;48.708;9.290;2023-04-26T02:52:33;97897.91;;;-4.13;92.11
43741;BME280;29352;48.708;9.290;2023-04-26T02:54:59;97894.84;;;-4.07;90.74
43741;BME280;29352;48.708;9.290;2023-04-26T02:57:25;97894.19;;;-4.43;92.24
43741;BME280;29352;48.708;9.290;2023-04-26T02:59:51;97907.44;;;-4.35;91.54
43741;BME280;29352;48.708;9.290;2023-04-26T03:02:16;97903.06;;;-4.34;92.47
43741;BME280;29352;48.708;9.290;2023-04-26T03:04:42;97905.13;;;-4.71;93.25
43741;BME280;29352;48.708;9.290;2023-04-26T03:07:07;97908.19;;;-4.55;94.25
43741;BME280;29352;48.708;9.290;2023-04-26T03:09:33;97900.03;;;-4.18;92.93
43741;BME280;29352;48.708;9.290;2023-04-26T03:11:58;97906.94;;;-4.06;92.86
43741;BME280;29352;48.708;9.290;2023-04-26T03:14:24;97901.72;;;-4.06;92.22
43741;BME280;29352;48.708;9.290;2023-04-26T03:16:50;97900.53;;;-4.13;92.60
43741;BME280;29352;48.708;9.290;2023-04-26T03:19:16;97903.91;;;-4.45;93.70
43741;BME280;29352;48.708;9.290;2023-04-26T03:21:41;97904.09;;;-4.14;93.26
43741;BME280;29352;48.708;9.290;2023-04-26T03:24:07;97897.78;;;-4.12;93.16
43741;BME280;29352;48.708;9.290;2023-04-26T03:26:32;97904.66;;;-4.11;93.26
43741;BME280;29352;48.708;9.290;2023-04-26T03:28:58;97906.31;;;-4.10;92.86
43741;BME280;29352;48.708;9.290;2023-04-26T03:31:23;97910.91;;;-3.91;91.95
43741;BME280;29352;48.708;9.290;2023-04-26T03:33:49;97905.38;;;-3.97;91.66
43741;BME280;29352;48.708;9.290;2023-04-26T03:36:14;97906.94;;;-4.17;91.54
43741;BME280;29352;48.708;9.290;2023-04-26T03:38:41;97914.59;;;-3.93;90.63
43741;BME280;29352;48.708;9.290;2023-04-26T03:41:07;97906.88;;;-3.95;91.08
43741;BME280;29352;48.708;9.290;2023-04-26T03:43:32;97905.91;;;-4.37;93.40
43741;BME280;29352;48.708;9.290;2023-04-26T03:45:59;97900.06;;;-4.07;92.22
43741;BME280;29352;48.708;9.290;2023-04-26T03:48:25;97898.63;;;-4.11;92.09
43741;BME280;29352;48.708;9.290;2023-04-26T03:50:51;97902.00;;;-4.32;92.49
43741;BME280;29352;48.708;9.290;2023-04-26T03:53:17;97894.91;;;-4.41;92.75
43741;BME280;29352;48.708;9.290;2023-04-26T03:55:43;97893.59;;;-4.46;92.08
43741;BME280;29352;48.708;9.290;2023-04-26T03:58:09;97892.41;;;-4.54;92.20
43741;BME280;29352;48.708;9.290;2023-04-26T04:00:37;97901.81;;;-4.73;93.15
43741;BME280;29352;48.708;9.290;2023-04-26T04:03:03;97902.50;;;-4.71;93.33
43741;BME280;29352;48.708;9.290;2023-04-26T04:05:30;97895.19;;;-4.89;93.57
43741;BME280;29352;48.708;9.290;2023-04-26T04:07:56;97897.88;;;-5.02;93.40
43741;BME280;29352;48.708;9.290;2023-04-26T04:10:22;97896.00;;;-5.00;93.45
43741;BME280;29352;48.708;9.290;2023-04-26T04:12:48;97898.03;;;-4.69;92.32
43741;BME280;29352;48.708;9.290;2023-04-26T04:15:15;97899.19;;;-5.07;92.65
43741;BME280;29352;48.708;9.290;2023-04-26T04:17:41;97901.06;;;-5.09;93.47
43741;BME280;29352;48.708;9.290;2023-04-26T04:20:07;97915.03;;;-5.21;93.06
43741;BME280;29352;48.708;9.290;2023-04-26T04:22:33;97902.63;;;-5.18;93.54
43741;BME280;29352;48.708;9.290;2023-04-26T04:24:58;97905.09;;;-5.16;94.25
43741;BME280;29352;48.708;9.290;2023-04-26T04:27:25;97908.44;;;-4.92;94.00
43741;BME280;29352;48.708;9.290;2023-04-26T04:29:51;97907.00;;;-4.62;93.09
43741;BME280;29352;48.708;9.290;2023-04-26T04:32:20;97897.00;;;-4.23;91.06
43741;BME280;29352;48.708;9.290;2023-04-26T04:34:48;97915.31;;;-4.80;92.84
43741;BME280;29352;48.708;9.290;2023-04-26T04:37:14;97911.03;;;-4.69;93.44
43741;BME280;29352;48.708;9.290;2023-04-26T04:39:39;97917.19;;;-4.70;94.24
43741;BME280;29352;48.708;9.290;2023-04-26T04:42:05;97913.72;;;-3.83;90.65
43741;BME280;29352;48.708;9.290;2023-04-26T04:44:31;97920.72;;;-3.83;90.21
43741;BME280;29352;48.708;9.290;2023-04-26T04:46:56;97910.44;;;-3.43;88.27
43741;BME280;29352;48.708;9.290;2023-04-26T04:49:22;97908.91;;;-3.03;87.08
43741;BME280;29352;48.708;9.290;2023-04-26T04:51:49;97918.34;;;-3.12;86.63
43741;BME280;29352;48.708;9.290;2023-04-26T04:54:17;97914.81;;;-3.01;86.26
43741;BME280;29352;48.708;9.290;2023-04-26T04:56:43;97910.97;;;-2.97;85.33
43741;BME280;29352;48.708;9.290;2023-04-26T04:59:09;97916.34;;;-2.99;86.33
43741;BME280;29352;48.708;9.290;2023-04-26T05:01:35;97920.81;;;-2.49;86.46
43741;BME280;29352;48.708;9.290;2023-04-26T05:04:01;97917.09;;;-1.77;84.08
43741;BME280;29352;48.708;9.290;2023-04-26T05:06:28;97919.81;;;-0.64;79.51
43741;BME280;29352;48.708;9.290;2023-04-26T05:08:54;97923.84;;;-0.79;79.95
43741;BME280;29352;48.708;9.290;2023-04-26T05:11:20;97923.22;;;-0.54;77.79
43741;BME280;29352;48.708;9.290;2023-04-26T05:13:47;97926.44;;;-0.32;78.45
43741;BME280;29352;48.708;9.290;2023-04-26T05:16:13;97933.94;;;0.08;76.63
43741;BME280;29352;48.708;9.290;2023-04-26T05:18:39;97937.03;;;0.39;75.18
43741;BME280;29352;48.708;9.290;2023-04-26T05:21:05;97938.06;;;1.42;74.26
43741;BME280;29352;48.708;9.290;2023-04-26T05:23:31;97928.75;;;1.90;71.68
43741;BME280;29352;48.708;9.290;2023-04-26T05:26:02;97929.84;;;0.85;76.06
43741;BME280;29352;48.708;9.290;2023-04-26T05:28:29;97934.03;;;0.96;73.38
43741;BME280;29352;48.708;9.290;2023-04-26T05:30:54;97940.75;;;0.19;76.85
43741;BME280;29352;48.708;9.290;2023-04-26T05:33:20;97946.59;;;0.13;77.92
43741;BME280;29352;48.708;9.290;2023-04-26T05:35:47;97945.38;;;1.57;73.00
43741;BME280;29352;48.708;9.290;2023-04-26T05:38:12;97942.81;;;1.39;73.15
43741;BME280;29352;48.708;9.290;2023-04-26T05:40:38;97940.25;;;1.21;72.63
43741;BME280;29352;48.708;9.290;2023-04-26T05:43:03;97939.72;;;1.09;72.56
43741;BME280;29352;48.708;9.290;2023-04-26T05:45:29;97945.13;;;1.42;73.21
43741;BME280;29352;48.708;9.290;2023-04-26T05:47:54;97950.13;;;1.19;75.62
43741;BME280;29352;48.708;9.290;2023-04-26T05:50:20;97951.91;;;1.79;72.96
43741;BME280;29352;48.708;9.290;2023-04-26T05:52:45;97952.59;;;1.47;74.30
43741;BME280;29352;48.708;9.290;2023-04-26T05:55:11;97954.34;;;1.72;73.81
43741;BME280;29352;48.708;9.290;2023-04-26T05:57:37;97953.50;;;0.85;75.73
43741;BME280;29352;48.708;9.290;2023-04-26T06:00:04;97953.19;;;0.88;74.61
43741;BME280;29352;48.708;9.290;2023-04-26T06:02:30;97960.03;;;1.59;74.17
43741;BME280;29352;48.708;9.290;2023-04-26T06:04:56;97961.22;;;1.73;72.79
43741;BME280;29352;48.708;9.290;2023-04-26T06:07:21;97957.06;;;1.28;70.78
43741;BME280;29352;48.708;9.290;2023-04-26T06:09:47;97963.41;;;1.78;71.42
43741;BME280;29352;48.708;9.290;2023-04-26T06:12:12;97959.16;;;2.52;70.63
43741;BME280;29352;48.708;9.290;2023-04-26T06:14:38;97960.09;;;2.10;68.43
43741;BME280;29352;48.708;9.290;2023-04-26T06:17:04;97960.66;;;1.87;69.97
43741;BME280;29352;48.708;9.290;2023-04-26T06:19:29;97966.41;;;1.57;71.25
43741;BME280;29352;48.708;9.290;2023-04-26T06:21:54;97969.31;;;2.22;69.64
43741;BME280;29352;48.708;9.290;2023-04-26T06:24:22;97956.81;;;3.39;66.43
43741;BME280;29352;48.708;9.290;2023-04-26T06:26:49;97953.66;;;4.76;62.88
43741;BME280;29352;48.708;9.290;2023-04-26T06:29:15;97949.97;;;5.67;61.36
43741;BME280;29352;48.708;9.290;2023-04-26T06:31:41;97952.16;;;4.27;63.51
43741;BME280;29352;48.708;9.290;2023-04-26T06:34:07;97957.31;;;4.52;63.05
43741;BME280;29352;48.708;9.290;2023-04-26T06:36:32;97959.97;;;4.52;62.72
43741;BME280;29352;48.708;9.290;2023-04-26T06:38:57;97963.88;;;4.79;63.52
43741;BME280;29352;48.708;9.290;2023-04-26T06:41:23;97970.50;;;4.98;62.55
43741;BME280;29352;48.708;9.290;2023-04-26T06:43:48;97967.25;;;5.26;61.73
43741;BME280;29352;48.708;9.290;2023-04-26T06:46:14;97971.41;;;5.05;60.95
43741;BME280;29352;48.708;9.290;2023-04-26T06:48:39;97971.28;;;5.36;60.99
43741;BME280;29352;48.708;9.290;2023-04-26T06:51:06;97977.34;;;4.69;63.18
43741;BME280;29352;48.708;9.290;2023-04-26T06:53:33;97966.38;;;4.49;60.85
43741;BME280;29352;48.708;9.290;2023-04-26T06:56:01;97969.81;;;5.34;61.04
43741;BME280;29352;48.708;9.290;2023-04-26T06:58:27;97966.91;;;5.14;60.35
43741;BME280;29352;48.708;9.290;2023-04-26T07:00:55;97971.69;;;5.63;58.46
43741;BME280;29352;48.708;9.290;2023-04-26T07:03:21;97961.09;;;5.63;57.33
43741;BME280;29352;48.708;9.290;2023-04-26T07:05:47;97967.47;;;5.98;58.26
43741;BME280;29352;48.708;9.290;2023-04-26T07:08:12;97965.13;;;5.74;57.25
43741;BME280;29352;48.708;9.290;2023-04-26T07:10:40;97957.81;;;6.27;57.20
43741;BME280;29352;48.708;9.290;2023-04-26T07:13:05;97957.16;;;6.61;57.02
43741;BME280;29352;48.708;9.290;2023-04-26T07:15:31;97947.50;;;6.17;54.77
43741;BME280;29352;48.708;9.290;2023-04-26T07:17:57;97940.53;;;6.95;52.85
43741;BME280;29352;48.708;9.290;2023-04-26T07:20:22;97937.03;;;8.53;51.45
43741;BME280;29352;48.708;9.290;2023-04-26T07:22:48;97935.81;;;8.63;50.83
43741;BME280;29352;48.708;9.290;2023-04-26T07:25:15;97934.13;;;8.35;52.18
43741;BME280;29352;48.708;9.290;2023-04-26T07:27:42;97935.59;;;7.48;52.65
43741;BME280;29352;48.708;9.290;2023-04-26T07:30:08;97944.72;;;7.04;54.29
43741;BME280;29352;48.708;9.290;2023-04-26T07:32:35;97943.34;;;6.87;49.61
43741;BME280;29352;48.708;9.290;2023-04-26T07:35:04;97934.94;;;9.62;46.59
43741;BME280;29352;48.708;9.290;2023-04-26T07:37:31;97926.09;;;10.64;45.78
43741;BME280;29352;48.708;9.290;2023-04-26T07:39:57;97927.47;;;11.24;46.29
43741;BME280;29352;48.708;9.290;2023-04-26T07:42:22;97924.16;;;11.47;43.96
43741;BME280;29352;48.708;9.290;2023-04-26T07:44:47;97919.06;;;12.12;41.54
43741;BME280;29352;48.708;9.290;2023-04-26T07:47:13;97933.88;;;10.28;44.00
43741;BME280;29352;48.708;9.290;2023-04-26T07:49:39;97940.38;;;9.09;46.61
43741;BME280;29352;48.708;9.290;2023-04-26T07:52:05;97932.28;;;9.75;45.06
43741;BME280;29352;48.708;9.290;2023-04-26T07:54:32;97938.47;;;8.43;48.16
43741;BME280;29352;48.708;9.290;2023-04-26T07:56:58;97928.44;;;10.48;44.37
43741;BME280;29352;48.708;9.290;2023-04-26T07:59:23;97927.84;;;10.07;45.00
43741;BME280;29352;48.708;9.290;2023-04-26T08:01:48;97933.78;;;10.09;43.97
43741;BME280;29352;48.708;9.290;2023-04-26T08:04:14;97932.50;;;9.67;44.32
43741;BME280;29352;48.708;9.290;2023-04-26T08:06:39;97938.63;;;8.35;47.16
43741;BME280;29352;48.708;9.290;2023-04-26T08:09:09;97930.22;;;10.92;44.16
43741;BME280;29352;48.708;9.290;2023-04-26T08:11:35;97924.88;;;10.92;42.96
43741;BME280;29352;48.708;9.290;2023-04-26T08:14:01;97920.72;;;11.95;43.30
43741;BME280;29352;48.708;9.290;2023-04-26T08:16:27;97926.97;;;10.83;43.80
43741;BME280;29352;48.708;9.290;2023-04-26T08:18:53;97923.84;;;9.85;44.80
43741;BME280;29352;48.708;9.290;2023-04-26T08:21:19;97934.63;;;9.12;46.84
43741;BME280;29352;48.708;9.290;2023-04-26T08:23:45;97934.72;;;10.22;44.63
43741;BME280;29352;48.708;9.290;2023-04-26T08:26:10;97943.63;;;8.91;46.42
43741;BME280;29352;48.708;9.290;2023-04-26T08:28:36;97929.66;;;9.35;48.72
43741;BME280;29352;48.708;9.290;2023-04-26T08:31:02;97935.22;;;8.61;47.37
43741;BME280;29352;48.708;9.290;2023-04-26T08:33:28;97929.22;;;8.39;49.46
43741;BME280;29352;48.708;9.290;2023-04-26T08:35:54;97926.41;;;6.88;48.76
43741;BME280;29352;48.708;9.290;2023-04-26T08:38:20;97937.25;;;7.91;48.36
43741;BME280;29352;48.708;9.290;2023-04-26T08:40:46;97932.81;;;8.04;47.50
43741;BME280;29352;48.708;9.290;2023-04-26T08:43:14;97938.97;;;8.05;48.60
43741;BME280;29352;48.708;9.290;2023-04-26T08:45:44;97937.16;;;8.19;48.64
43741;BME280;29352;48.708;9.290;2023-04-26T08:48:13;97928.34;;;8.05;48.39
43741;BME280;29352;48.708;9.290;2023-04-26T08:50:42;97938.91;;;8.73;49.72
43741;BME280;29352;48.708;9.290;2023-04-26T08:53:16;97938.22;;;8.38;48.76
43741;BME280;29352;48.708;9.290;2023-04-26T08:55:48;97945.22;;;7.84;48.41
43741;BME280;29352;48.708;9.290;2023-04-26T08:58:16;97944.31;;;8.12;48.00
43741;BME280;29352;48.708;9.290;2023-04-26T09:00:43;97940.94;;;8.58;47.80
43741;BME280;29352;48.708;9.290;2023-04-26T09:03:10;97939.88;;;7.43;49.24
43741;BME280;29352;48.708;9.290;2023-04-26T09:05:39;97949.63;;;6.86;51.01
43741;BME280;29352;48.708;9.290;2023-04-26T09:08:12;97947.94;;;4.87;54.61
43741;BME280;29352;48.708;9.290;2023-04-26T09:10:42;97950.75;;;4.86;54.51
43741;BME280;29352;48.708;9.290;2023-04-26T09:13:08;97946.34;;;6.62;52.04
43741;BME280;29352;48.708;9.290;2023-04-26T09:15:34;97934.47;;;6.58;51.29
43741;BME280;29352;48.708;9.290;2023-04-26T09:18:20;97938.72;;;7.58;48.13
43741;BME280;29352;48.708;9.290;2023-04-26T09:21:07;97944.63;;;6.55;50.88
43741;BME280;29352;48.708;9.290;2023-04-26T09:23:33;97939.41;;;7.74;49.41
43741;BME280;29352;48.708;9.290;2023-04-26T09:26:18;97937.47;;;7.20;49.70
43741;BME280;29352;48.708;9.290;2023-04-26T09:28:45;97935.63;;;6.13;50.52
43741;BME280;29352;48.708;9.290;2023-04-26T09:31:21;97935.25;;;6.52;50.05
43741;BME280;29352;48.708;9.290;2023-04-26T09:34:09;97932.47;;;6.39;49.04
43741;BME280;29352;48.708;9.290;2023-04-26T09:36:55;97922.56;;;7.53;50.23
43741;BME280;29352;48.708;9.290;2023-04-26T09:39:33;97921.38;;;8.11;50.04
43741;BME280;29352;48.708;9.290;2023-04-26T09:42:02;97914.06;;;8.19;46.87
43741;BME280;29352;48.708;9.290;2023-04-26T09:44:29;97907.94;;;8.39;49.27
43741;BME280;29352;48.708;9.290;2023-04-26T09:47:08;97905.50;;;9.43;47.84
43741;BME280;29352;48.708;9.290;2023-04-26T09:49:47;97909.59;;;8.60;49.64
43741;BME280;29352;48.708;9.290;2023-04-26T09:52:16;97905.91;;;8.41;47.42
43741;BME280;29352;48.708;9.290;2023-04-26T09:54:53;97907.44;;;7.95;47.09
43741;BME280;29352;48.708;9.290;2023-04-26T09:57:20;97904.75;;;7.89;47.77
43741;BME280;29352;48.708;9.290;2023-04-26T09:59:49;97909.09;;;8.03;46.46
43741;BME280;29352;48.708;9.290;2023-04-26T10:02:20;97909.50;;;8.06;47.94
43741;BME280;29352;48.708;9.290;2023-04-26T10:04:52;97903.47;;;8.66;45.94
43741;BME280;29352;48.708;9.290;2023-04-26T10:07:21;97917.13;;;7.75;46.89
43741;BME280;29352;48.708;9.290;2023-04-26T10:09:48;97916.06;;;7.28;48.41
43741;BME280;29352;48.708;9.290;2023-04-26T10:12:16;97912.38;;;6.94;52.59
43741;BME280;29352;48.708;9.290;2023-04-26T10:14:44;97911.78;;;7.68;53.33
43741;BME280;29352;48.708;9.290;2023-04-26T10:17:12;97900.91;;;7.56;51.34
43741;BME280;29352;48.708;9.290;2023-04-26T10:19:42;97905.06;;;8.27;50.64
43741;BME280;29352;48.708;9.290;2023-04-26T10:22:30;97896.50;;;8.51;49.64
43741;BME280;29352;48.708;9.290;2023-04-26T10:24:59;97887.19;;;9.67;49.06
43741;BME280;29352;48.708;9.290;2023-04-26T10:30:16;97883.81;;;9.33;47.03
43741;BME280;29352;48.708;9.290;2023-04-26T10:35:23;97880.84;;;9.75;46.19
43741;BME280;29352;48.708;9.290;2023-04-26T10:40:36;97882.47;;;10.46;47.96
43741;BME280;29352;48.708;9.290;2023-04-26T10:45:42;97879.97;;;9.74;48.98
43741;BME280;29352;48.708;9.290;2023-04-26T10:48:17;97881.41;;;8.92;49.61
43741;BME280;29352;48.708;9.290;2023-04-26T10:53:23;97888.25;;;8.06;48.03
43741;BME280;29352;48.708;9.290;2023-04-26T10:55:49;97883.72;;;7.18;48.62
43741;BME280;29352;48.708;9.290;2023-04-26T10:58:26;97885.00;;;7.56;47.72
43741;BME280;29352;48.708;9.290;2023-04-26T11:04:01;97887.38;;;6.60;47.62
43741;BME280;29352;48.708;9.290;2023-04-26T11:09:32;97882.56;;;6.92;46.01
43741;BME280;29352;48.708;9.290;2023-04-26T11:12:05;97878.25;;;7.19;46.78
43741;BME280;29352;48.708;9.290;2023-04-26T11:14:35;97885.19;;;7.62;46.12
43741;BME280;29352;48.708;9.290;2023-04-26T11:17:11;97874.81;;;8.35;46.10
43741;BME280;29352;48.708;9.290;2023-04-26T11:19:39;97872.94;;;8.15;44.77
43741;BME280;29352;48.708;9.290;2023-04-26T11:22:06;97870.41;;;7.94;48.45
43741;BME280;29352;48.708;9.290;2023-04-26T11:24:33;97860.81;;;7.86;48.87
43741;BME280;29352;48.708;9.290;2023-04-26T11:27:09;97860.28;;;7.63;48.46
43741;BME280;29352;48.708;9.290;2023-04-26T11:29:37;97853.66;;;7.45;47.26
43741;BME280;29352;48.708;9.290;2023-04-26T11:32:03;97840.91;;;7.27;48.92
43741;BME280;29352;48.708;9.290;2023-04-26T11:36:55;97822.88;;;8.92;45.30
43741;BME280;29352;48.708;9.290;2023-04-26T11:39:20;97833.59;;;9.43;45.98
43741;BME280;29352;48.708;9.290;2023-04-26T11:41:46;97821.03;;;9.57;44.66
43741;BME280;29352;48.708;9.290;2023-04-26T11:44:12;97819.06;;;9.84;46.18
43741;BME280;29352;48.708;9.290;2023-04-26T11:46:41;97818.47;;;9.82;46.13
43741;BME280;29352;48.708;9.290;2023-04-26T11:49:08;97813.03;;;10.02;46.22
43741;BME280;29352;48.708;9.290;2023-04-26T11:51:34;97816.19;;;9.34;47.88
43741;BME280;29352;48.708;9.290;2023-04-26T11:53:59;97815.75;;;9.44;46.04
43741;BME280;29352;48.708;9.290;2023-04-26T11:56:25;97818.59;;;9.42;45.83
43741;BME280;29352;48.708;9.290;2023-04-26T11:58:51;97812.44;;;9.48;48.45
43741;BME280;29352;48.708;9.290;2023-04-26T12:01:22;97812.28;;;9.37;48.22
43741;BME280;29352;48.708;9.290;2023-04-26T12:03:51;97812.03;;;8.34;45.95
43741;BME280;29352;48.708;9.290;2023-04-26T12:06:18;97801.97;;;8.89;45.06
43741;BME280;29352;48.708;9.290;2023-04-26T12:08:51;97793.75;;;10.00;45.41
43741;BME280;29352;48.708;9.290;2023-04-26T12:11:17;97798.69;;;9.97;42.42
43741;BME280;29352;48.708;9.290;2023-04-26T12:13:44;97808.19;;;7.62;45.06
43741;BME280;29352;48.708;9.290;2023-04-26T12:16:12;97801.59;;;8.19;45.15
43741;BME280;29352;48.708;9.290;2023-04-26T12:18:39;97810.16;;;8.14;46.07
43741;BME280;29352;48.708;9.290;2023-04-26T12:21:05;97811.50;;;7.70;45.59
43741;BME280;29352;48.708;9.290;2023-04-26T12:23:38;97812.81;;;8.21;46.35
43741;BME280;29352;48.708;9.290;2023-04-26T12:26:05;97807.22;;;9.15;46.34
43741;BME280;29352;48.708;9.290;2023-04-26T12:28:34;97809.97;;;8.29;46.37
43741;BME280;29352;48.708;9.290;2023-04-26T12:31:00;97812.78;;;9.72;43.84
43741;BME280;29352;48.708;9.290;2023-04-26T12:33:27;97802.81;;;8.36;44.38
43741;BME280;29352;48.708;9.290;2023-04-26T12:35:52;97793.38;;;8.67;44.72
43741;BME280;29352;48.708;9.290;2023-04-26T12:38:18;97802.34;;;9.64;44.62
43741;BME280;29352;48.708;9.290;2023-04-26T12:40:44;97792.84;;;9.81;43.37
43741;BME280;29352;48.708;9.290;2023-04-26T12:43:10;97792.69;;;9.69;43.12
43741;BME280;29352;48.708;9.290;2023-04-26T12:45:35;97786.44;;;8.79;42.98
43741;BME280;29352;48.708;9.290;2023-04-26T12:48:01;97792.09;;;7.22;45.40
43741;BME280;29352;48.708;9.290;2023-04-26T12:50:27;97788.47;;;6.88;46.49
43741;BME280;29352;48.708;9.290;2023-04-26T12:52:52;97786.00;;;7.89;46.71
43741;BME280;29352;48.708;9.290;2023-04-26T12:55:18;97784.41;;;8.54;46.57
43741;BME280;29352;48.708;9.290;2023-04-26T12:57:44;97785.22;;;8.48;47.10
43741;BME280;29352;48.708;9.290;2023-04-26T13:00:12;97789.28;;;8.91;45.25
43741;BME280;29352;48.708;9.290;2023-04-26T13:02:39;97782.25;;;7.70;45.17
43741;BME280;29352;48.708;9.290;2023-04-26T13:05:06;97774.56;;;8.22;45.27
43741;BME280;29352;48.708;9.290;2023-04-26T13:07:34;97780.63;;;6.02;47.00
43741;BME280;29352;48.708;9.290;2023-04-26T13:10:02;97791.91;;;6.60;48.24
43741;BME280;29352;48.708;9.290;2023-04-26T13:12:29;97784.97;;;7.22;46.07
43741;BME280;29352;48.708;9.290;2023-04-26T13:14:55;97780.69;;;7.28;45.91
43741;BME280;29352;48.708;9.290;2023-04-26T13:17:23;97783.56;;;7.33;47.09
43741;BME280;29352;48.708;9.290;2023-04-26T13:19:50;97776.22;;;8.10;44.68
43741;BME280;29352;48.708;9.290;2023-04-26T13:22:17;97779.63;;;6.81;46.72
43741;BME280;29352;48.708;9.290;2023-04-26T13:24:43;97774.59;;;7.34;47.05
43741;BME280;29352;48.708;9.290;2023-04-26T13:27:08;97780.91;;;8.01;45.32